Time;durP1;ratioP1;P1;durP2;ratioP2;P2;SDS_P1;SDS_P2;PMS_P1;PMS_P2;Temp;Humidity;BMP_temperature;BMP_pressure;BME280_temperature;BME280_humidity;BME280_pressure;Samples;Min_cycle;Max_cycle;Signal;HPM_P1;HPM_P2
2023/04/01 00:01:36;;;;;;;6.13;1.07;;;6.20;99.90;6.50;92707.00;;;;7394580;19;20137;-75
2023/04/01 00:04:10;;;;;;;3.33;0.77;;;6.20;87.40;6.60;92678.00;;;;7396265;19;20615;-77
2023/04/01 00:06:37;;;;;;;2.53;0.70;;;6.20;99.90;6.50;92707.00;;;;7397757;19;20124;-75
2023/04/01 00:09:10;;;;;;;4.20;1.00;;;6.20;68.80;6.60;92705.00;;;;7396540;19;20145;-77
2023/04/01 00:11:38;;;;;;;4.47;1.07;;;6.30;1.00;6.70;92699.00;;;;7397057;19;20208;-76
2023/04/01 00:14:12;;;;;;;6.33;1.37;;;6.30;1.00;6.60;92679.00;;;;7397955;19;20493;-76
2023/04/01 00:16:45;;;;;;;3.40;1.10;;;6.30;1.00;6.70;92699.00;;;;7397629;19;20133;-76
2023/04/01 00:19:19;;;;;;;4.37;1.10;;;6.30;1.00;6.60;92714.00;;;;7395384;19;20155;-75
2023/04/01 00:21:47;;;;;;;4.90;1.17;;;6.20;1.00;6.60;92686.00;;;;7395769;19;20604;-76
2023/04/01 00:24:22;;;;;;;2.87;0.80;;;6.30;1.00;6.50;92703.00;;;;7397923;19;20576;-75
2023/04/01 00:26:56;;;;;;;2.83;0.80;;;6.20;99.90;6.00;92701.00;;;;7395841;19;20133;-77
2023/04/01 00:29:31;;;;;;;3.20;0.80;;;6.10;99.90;5.60;92683.00;;;;7397192;19;20152;-77
2023/04/01 00:31:58;;;;;;;3.77;1.00;;;5.80;1.00;5.50;92718.00;;;;7396928;19;20500;-76
2023/04/01 00:34:31;;;;;;;4.67;1.10;;;5.70;99.90;5.50;92711.00;;;;7397243;19;20572;-74
2023/04/01 00:37:07;;;;;;;7.17;0.87;;;5.60;99.90;5.60;92675.00;;;;7385271;19;20133;-77
2023/04/01 00:39:40;;;;;;;4.80;1.07;;;5.50;99.90;5.50;92703.00;;;;7400777;19;20153;-75
2023/04/01 00:42:20;;;;;;;2.13;0.80;;;5.50;99.90;5.40;92722.00;;;;7402457;19;20124;-74
2023/04/01 00:44:55;;;;;;;3.20;1.03;;;5.40;1.00;5.50;92699.00;;;;7404970;19;20140;-75
2023/04/01 00:47:28;;;;;;;6.60;0.90;;;5.40;1.00;5.40;92706.00;;;;7403814;19;20639;-75
2023/04/01 00:50:03;;;;;;;3.13;0.80;;;5.40;1.00;5.50;92687.00;;;;7404662;19;20133;-78
2023/04/01 00:52:30;;;;;;;4.87;0.87;;;5.20;1.00;5.50;92703.00;;;;7404649;19;20140;-75
2023/04/01 00:55:07;;;;;;;1.30;0.60;;;5.30;1.00;5.60;92687.00;;;;7399109;19;20129;-74
2023/04/01 00:57:44;;;;;;;3.03;0.77;;;5.30;1.00;5.70;92700.00;;;;7404126;19;20131;-74
2023/04/01 01:00:18;;;;;;;2.10;1.30;;;5.30;1.00;5.80;92712.00;;;;7400582;19;20191;-72
2023/04/01 01:02:59;;;;;;;3.07;0.80;;;5.40;99.90;5.80;92704.00;;;;7394647;19;20196;-80
2023/04/01 01:05:49;;;;;;;3.67;1.00;;;5.40;99.90;5.90;92711.00;;;;7403171;19;20129;-81
2023/04/01 01:08:43;;;;;;;2.13;0.80;;;5.50;99.90;6.00;92688.00;;;;7403093;19;20133;-79
2023/04/01 01:11:32;;;;;;;4.10;0.77;;;5.50;69.40;6.00;92696.00;;;;7400957;19;20151;-78
2023/04/01 01:14:28;;;;;;;5.20;0.90;;;5.60;9.10;5.90;92689.00;;;;7402318;19;20553;-77
2023/04/01 01:17:52;;;;;;;3.87;0.63;;;5.70;1.00;5.80;92710.00;;;;7403240;19;20137;-84
2023/04/01 01:20:56;;;;;;;1.67;0.70;;;5.60;99.90;5.60;92711.00;;;;7398917;19;20149;-79
2023/04/01 01:24:13;;;;;;;1.13;0.40;;;5.50;1.00;5.50;92714.00;;;;7404077;19;20523;-83
2023/04/01 01:27:02;;;;;;;1.07;0.53;;;5.40;1.00;5.40;92719.00;;;;7402075;19;20224;-79
2023/04/01 01:30:39;;;;;;;1.80;0.70;;;5.30;1.00;5.40;92715.00;;;;7402142;19;20129;-81
2023/04/01 01:33:50;;;;;;;2.50;0.53;;;5.30;1.00;5.40;92719.00;;;;7399112;19;20141;-81
2023/04/01 01:36:30;;;;;;;1.60;0.80;;;5.30;1.00;5.40;92719.00;;;;7399566;19;20634;-82
2023/04/01 01:38:58;;;;;;;3.67;0.60;;;5.20;65.10;5.40;92693.00;;;;7402084;19;20148;-82
2023/04/01 01:41:33;;;;;;;2.63;0.70;;;5.20;17.30;5.40;92706.00;;;;7402784;19;20579;-82
2023/04/01 01:44:12;;;;;;;3.63;0.60;;;5.20;1.00;5.40;92701.00;;;;7402727;19;20132;-81
2023/04/01 01:46:48;;;;;;;3.13;0.77;;;5.20;1.00;5.40;92651.00;;;;7401747;19;20172;-81
2023/04/01 01:49:23;;;;;;;4.53;0.90;;;5.20;99.90;5.50;92683.00;;;;7401708;19;20170;-81
2023/04/01 01:51:57;;;;;;;2.93;0.70;;;5.30;99.90;5.60;92700.00;;;;7396947;19;20211;-80
2023/04/01 01:54:24;;;;;;;2.83;0.63;;;5.30;99.90;5.40;92701.00;;;;7401375;19;20125;-80
2023/04/01 01:57:10;;;;;;;3.80;0.90;;;5.20;99.90;5.30;92682.00;;;;7402039;19;20592;-80
2023/04/01 01:59:49;;;;;;;1.50;0.70;;;5.20;99.90;5.20;92711.00;;;;7400159;19;20208;-78
2023/04/01 02:02:27;;;;;;;3.53;0.60;;;5.20;99.90;5.30;92687.00;;;;7397241;19;20841;-78
2023/04/01 02:05:16;;;;;;;3.30;0.73;;;5.20;99.90;5.30;92683.00;;;;7400307;19;20167;-79
2023/04/01 02:08:16;;;;;;;2.30;0.93;;;5.20;99.90;4.90;92689.00;;;;7400328;19;20167;-82
2023/04/01 02:11:00;;;;;;;8.20;0.97;;;5.20;99.90;5.50;92630.00;;;;7400525;19;20144;-81
2023/04/01 02:13:54;;;;;;;3.70;0.73;;;5.20;99.90;5.50;92697.00;;;;7400581;19;20143;-78
2023/04/01 02:16:57;;;;;;;3.07;0.67;;;5.20;1.00;5.70;92691.00;;;;7399905;19;20152;-77
2023/04/01 02:19:39;;;;;;;3.10;0.73;;;5.30;1.00;5.60;92686.00;;;;7400734;19;20171;-80
2023/04/01 02:22:20;;;;;;;2.37;0.60;;;5.30;1.00;5.40;92687.00;;;;7399753;19;20141;-80
2023/04/01 02:25:02;;;;;;;2.87;0.80;;;5.30;1.00;5.20;92685.00;;;;7399420;19;20133;-80
2023/04/01 02:27:30;;;;;;;0.77;0.50;;;5.10;12.20;5.20;92669.00;;;;7396133;19;20137;-84
2023/04/01 02:30:07;;;;;;;2.57;0.83;;;5.10;1.00;5.10;92684.00;;;;7400600;19;20489;-82
2023/04/01 02:32:37;;;;;;;2.80;0.77;;;5.00;78.50;5.10;92703.00;;;;7400787;19;20608;-81
2023/04/01 02:35:16;;;;;;;3.23;0.83;;;5.00;1.00;5.30;92672.00;;;;7401108;19;20124;-81
2023/04/01 02:37:52;;;;;;;2.20;0.90;;;5.10;1.00;5.30;92689.00;;;;7400834;19;20501;-83
2023/04/01 02:40:20;;;;;;;3.13;0.70;;;5.10;45.60;5.30;92683.00;;;;7399331;19;20608;-79
2023/04/01 02:42:54;;;;;;;2.63;0.63;;;5.10;45.80;5.40;92634.00;;;;7399365;19;20129;-82
2023/04/01 02:45:21;;;;;;;2.47;0.67;;;5.00;99.90;5.20;92683.00;;;;7399503;19;20472;-81
2023/04/01 02:47:54;;;;;;;2.57;0.93;;;5.00;99.90;5.10;92679.00;;;;7399338;19;20144;-81
2023/04/01 02:50:22;;;;;;;1.37;0.50;;;5.00;99.90;5.00;92685.00;;;;7399581;19;20642;-81
2023/04/01 02:52:49;;;;;;;2.30;0.60;;;4.90;1.00;4.90;92689.00;;;;7397247;19;20576;-82
2023/04/01 02:55:22;;;;;;;3.33;0.90;;;4.80;4.30;4.80;92688.00;;;;7400335;19;20149;-81
2023/04/01 02:57:50;;;;;;;2.70;0.43;;;4.80;99.90;4.90;92673.00;;;;7400391;19;20142;-81
2023/04/01 03:00:25;;;;;;;3.03;0.80;;;4.80;99.90;4.80;92704.00;;;;7398133;19;20147;-82
2023/04/01 03:02:53;;;;;;;1.40;0.60;;;4.70;99.90;4.80;92699.00;;;;7397796;19;20184;-87
2023/04/01 03:05:33;;;;;;;2.03;0.73;;;4.70;99.90;4.80;92672.00;;;;7401230;19;20151;-82
2023/04/01 03:08:07;;;;;;;1.83;0.70;;;4.70;99.90;4.80;92662.00;;;;7400619;19;20125;-81
2023/04/01 03:10:41;;;;;;;3.60;0.70;;;4.70;99.90;4.80;92649.00;;;;7399037;19;20152;-82
2023/04/01 03:13:15;;;;;;;2.50;0.50;;;4.70;99.90;4.80;92702.00;;;;7398222;19;20133;-81
2023/04/01 03:15:49;;;;;;;2.73;0.80;;;4.70;99.90;4.80;92666.00;;;;7398346;19;20455;-80
2023/04/01 03:18:23;;;;;;;3.87;1.20;;;4.70;99.90;4.80;92659.00;;;;7399113;19;20133;-81
2023/04/01 03:20:51;;;;;;;3.13;0.60;;;4.70;99.90;4.80;92628.00;;;;7397885;19;20129;-81
2023/04/01 03:23:20;;;;;;;3.13;0.70;;;4.70;99.90;4.90;92685.00;;;;7398674;19;20149;-80
2023/04/01 03:25:53;;;;;;;2.83;0.60;;;4.80;99.90;4.90;92679.00;;;;7398643;19;20132;-85
2023/04/01 03:28:21;;;;;;;2.20;0.50;;;4.80;55.40;4.90;92650.00;;;;7399181;19;20140;-82
2023/04/01 03:30:54;;;;;;;2.47;0.70;;;4.90;3.00;5.00;92678.00;;;;7398676;19;20191;-81
2023/04/01 03:33:22;;;;;;;1.60;0.73;;;4.90;36.20;5.00;92675.00;;;;7397935;19;20168;-79
2023/04/01 03:35:55;;;;;;;1.53;0.80;;;4.90;1.00;5.00;92681.00;;;;7397626;19;20607;-80
2023/04/01 03:38:23;;;;;;;2.67;0.80;;;4.90;1.00;5.10;92663.00;;;;7394431;19;20504;-79
2023/04/01 03:41:03;;;;;;;4.23;0.70;;;5.00;1.00;5.10;92673.00;;;;7392947;19;20147;-80
2023/04/01 03:43:31;;;;;;;1.83;0.60;;;5.00;1.00;5.10;92647.00;;;;7399401;19;20710;-84
2023/04/01 03:46:07;;;;;;;3.17;0.70;;;5.00;1.00;5.00;92692.00;;;;7397595;19;20146;-86
2023/04/01 03:48:41;;;;;;;4.27;0.60;;;5.00;99.90;5.10;92695.00;;;;7400665;19;20129;-90
2023/04/01 03:51:14;;;;;;;2.40;0.70;;;5.00;99.90;5.20;92663.00;;;;7399947;19;20152;-86
2023/04/01 03:53:55;;;;;;;1.97;0.63;;;5.00;99.90;5.20;92668.00;;;;7400845;19;20179;-87
2023/04/01 03:56:23;;;;;;;4.30;0.70;;;5.10;99.90;5.20;92629.00;;;;7402964;19;20142;-91
2023/04/01 03:58:56;;;;;;;2.80;1.10;;;5.10;99.90;5.40;92672.00;;;;7403660;19;20492;-90
2023/04/01 04:01:24;;;;;;;3.00;1.00;;;5.10;99.90;5.50;92684.00;;;;7401569;19;20129;-86
2023/04/01 04:04:11;;;;;;;1.30;0.50;;;5.20;45.80;5.60;92685.00;;;;7401241;19;20519;-84
2023/04/01 04:06:44;;;;;;;2.70;0.70;;;5.20;18.10;5.50;92655.00;;;;7401968;19;20147;-86
2023/04/01 04:09:19;;;;;;;6.67;0.70;;;5.20;99.90;5.30;92661.00;;;;7399996;19;20207;-85
2023/04/01 04:11:46;;;;;;;1.60;0.40;;;5.10;99.90;5.30;92659.00;;;;7402137;19;20491;-88
2023/04/01 04:14:20;;;;;;;2.17;0.70;;;5.10;1.00;5.20;92657.00;;;;7403473;19;20163;-81
2023/04/01 04:16:47;;;;;;;4.03;0.90;;;5.00;1.00;5.00;92662.00;;;;7405834;19;20147;-83
2023/04/01 04:19:20;;;;;;;4.00;0.77;;;4.90;1.00;5.00;92689.00;;;;7405200;19;20157;-83
2023/04/01 04:21:48;;;;;;;3.90;0.57;;;4.80;48.60;4.90;92652.00;;;;7404951;19;20584;-89
2023/04/01 04:24:22;;;;;;;1.03;0.70;;;4.80;99.90;5.00;92689.00;;;;7405070;19;20152;-82
2023/04/01 04:26:49;;;;;;;1.57;0.60;;;4.80;91.30;5.00;92673.00;;;;7405251;19;20144;-82
2023/04/01 04:29:24;;;;;;;2.30;0.83;;;4.80;99.90;4.90;92687.00;;;;7407103;19;20141;-85
2023/04/01 04:31:51;;;;;;;1.73;0.60;;;4.80;99.90;5.00;92672.00;;;;7406726;19;20194;-82
2023/04/01 04:34:25;;;;;;;3.33;0.70;;;4.80;27.60;5.10;92644.00;;;;7406067;19;20143;-83
2023/04/01 04:36:52;;;;;;;4.17;0.70;;;4.80;1.00;5.20;92669.00;;;;7405643;19;20140;-82
2023/04/01 04:39:26;;;;;;;3.37;0.80;;;4.80;1.00;5.20;92656.00;;;;7404019;19;20155;-84
2023/04/01 04:42:02;;;;;;;7.00;1.20;;;4.90;1.00;5.30;92670.00;;;;7404057;19;20530;-83
2023/04/01 04:44:36;;;;;;;3.13;0.70;;;4.80;1.00;5.30;92659.00;;;;7401925;19;20136;-84
2023/04/01 04:47:10;;;;;;;5.97;0.70;;;4.90;1.00;5.30;92657.00;;;;7404239;19;20133;-86
2023/04/01 04:49:44;;;;;;;5.53;1.03;;;4.90;1.00;5.40;92652.00;;;;7405727;19;20148;-90
2023/04/01 04:52:17;;;;;;;1.67;0.63;;;4.90;99.90;5.40;92644.00;;;;7410468;19;20132;-88
2023/04/01 04:54:46;;;;;;;3.37;0.80;;;5.00;99.90;5.40;92647.00;;;;7405975;19;20129;-83
2023/04/01 04:57:20;;;;;;;4.73;1.73;;;5.10;99.90;5.40;92635.00;;;;7407039;19;20133;-85
2023/04/01 04:59:47;;;;;;;1.53;0.70;;;5.00;99.90;5.30;92624.00;;;;7406032;19;20223;-83
2023/04/01 05:02:21;;;;;;;1.87;0.87;;;5.00;99.90;5.20;92657.00;;;;7402203;19;20232;-82
2023/04/01 05:05:01;;;;;;;3.23;1.00;;;5.00;99.90;5.10;92657.00;;;;7402451;19;20553;-85
2023/04/01 05:07:35;;;;;;;2.40;1.17;;;4.90;1.00;5.00;92655.00;;;;7403836;19;20145;-82
2023/04/01 05:10:10;;;;;;;3.37;0.80;;;4.90;1.00;4.90;92620.00;;;;7402816;19;20442;-84
2023/04/01 05:12:44;;;;;;;4.30;1.30;;;4.80;1.00;4.90;92669.00;;;;7406123;19;20657;-86
2023/04/01 05:15:11;;;;;;;4.00;0.93;;;4.80;1.00;4.90;92657.00;;;;7400358;19;20154;-84
2023/04/01 05:17:44;;;;;;;3.40;1.17;;;4.80;67.10;4.90;92661.00;;;;7403943;19;20151;-84
2023/04/01 05:20:14;;;;;;;5.80;0.80;;;4.80;1.00;4.90;92605.00;;;;7403653;19;20607;-85
2023/04/01 05:22:56;;;;;;;2.80;1.00;;;4.80;99.90;4.80;92650.00;;;;7404508;19;20590;-85
2023/04/01 05:25:25;;;;;;;4.80;0.80;;;4.80;1.00;4.90;92611.00;;;;7401210;19;20169;-86
2023/04/01 05:27:59;;;;;;;1.37;0.70;;;4.80;1.00;5.00;92646.00;;;;7406836;19;20133;-86
2023/04/01 05:30:26;;;;;;;2.63;0.70;;;4.80;99.90;4.90;92616.00;;;;7402823;19;20250;-87
2023/04/01 05:33:00;;;;;;;2.93;0.70;;;4.90;99.90;5.00;92625.00;;;;7401738;19;20152;-85
2023/04/01 05:35:27;;;;;;;6.23;0.80;;;4.90;99.90;5.10;92610.00;;;;7402685;19;20149;-83
2023/04/01 05:38:02;;;;;;;2.50;0.77;;;5.00;99.90;5.20;92588.00;;;;7401847;19;20200;-83
2023/04/01 05:40:35;;;;;;;2.50;0.57;;;5.00;99.90;5.20;92634.00;;;;7402038;19;20601;-83
2023/04/01 05:43:03;;;;;;;2.53;0.63;;;5.00;99.90;5.30;92615.00;;;;7403235;19;20140;-82
2023/04/01 05:45:37;;;;;;;0.80;0.40;;;5.00;99.90;5.50;92612.00;;;;7398089;19;20148;-78
2023/04/01 05:48:05;;;;;;;1.60;0.77;;;5.10;21.40;5.50;92603.00;;;;7403881;19;20140;-83
2023/04/01 05:50:32;;;;;;;1.73;0.70;;;5.20;26.50;5.60;92618.00;;;;7404332;19;20227;-86
2023/04/01 05:53:05;;;;;;;4.53;0.97;;;5.10;45.70;5.50;92630.00;;;;7405620;19;20152;-90
2023/04/01 05:55:39;;;;;;;2.97;0.73;;;5.20;19.90;5.40;92640.00;;;;7401096;19;20204;-82
2023/04/01 05:58:14;;;;;;;2.43;0.60;;;5.20;45.50;5.40;92607.00;;;;7396536;19;20129;-84
2023/04/01 06:00:41;;;;;;;4.87;0.40;;;5.10;99.90;5.30;92640.00;;;;7400034;19;20504;-81
2023/04/01 06:03:28;;;;;;;0.40;0.40;;;5.10;99.90;5.30;92652.00;;;;7400038;19;20176;-83
2023/04/01 06:06:09;;;;;;;3.63;0.47;;;5.00;99.90;5.10;92629.00;;;;7403963;19;20140;-83
2023/04/01 06:08:44;;;;;;;0.87;0.47;;;5.00;1.00;5.10;92622.00;;;;7401667;19;20149;-84
2023/04/01 06:11:38;;;;;;;1.73;0.63;;;4.90;1.00;5.10;92633.00;;;;7402114;19;20144;-82
2023/04/01 06:14:42;;;;;;;1.70;0.40;;;4.90;1.00;5.00;92635.00;;;;7400060;19;20175;-81
2023/04/01 06:17:35;;;;;;;2.07;0.83;;;4.80;99.90;4.90;92645.00;;;;7386393;19;20148;-81
2023/04/01 06:20:30;;;;;;;0.70;0.40;;;4.80;99.90;4.90;92646.00;;;;7400481;19;20156;-86
2023/04/01 06:23:25;;;;;;;1.80;0.40;;;4.80;99.90;4.90;92642.00;;;;7401921;19;20456;-86
2023/04/01 06:26:42;;;;;;;2.13;0.60;;;4.80;1.00;4.80;92633.00;;;;7401606;19;20141;-83
2023/04/01 06:29:44;;;;;;;1.50;0.67;;;4.70;1.00;4.90;92651.00;;;;7401555;19;20587;-81
2023/04/01 06:32:36;;;;;;;2.20;0.50;;;4.70;1.00;4.90;92651.00;;;;7401787;19;20141;-83
2023/04/01 06:35:59;;;;;;;0.60;0.30;;;4.70;1.00;4.90;92647.00;;;;7403750;19;20149;-85
2023/04/01 06:38:57;;;;;;;1.13;0.10;;;4.70;1.00;4.80;92647.00;;;;7399322;19;20256;-81
2023/04/01 06:41:35;;;;;;;1.90;0.40;;;4.60;1.00;4.80;92654.00;;;;7400064;19;20156;-83
2023/04/01 06:44:59;;;;;;;0.83;0.40;;;4.60;9.20;4.80;92654.00;;;;7402675;19;20607;-85
2023/04/01 06:48:17;;;;;;;0.43;0.20;;;4.60;99.90;4.80;92654.00;;;;7396262;19;20152;-81
2023/04/01 06:51:22;;;;;;;2.73;0.30;;;4.50;99.90;4.70;92647.00;;;;7398140;19;20221;-81
2023/04/01 06:54:11;;;;;;;0.40;0.20;;;4.50;99.90;4.80;92653.00;;;;7401518;19;20128;-84
2023/04/01 06:56:55;;;;;;;0.30;0.30;;;4.60;1.00;4.80;92646.00;;;;7402534;19;20148;-84
2023/04/01 06:59:28;;;;;;;1.77;0.30;;;4.60;1.00;4.90;92629.00;;;;7399033;19;20140;-83
2023/04/01 07:02:40;;;;;;;1.03;0.40;;;4.60;1.00;4.80;92664.00;;;;7399614;19;20140;-81
2023/04/01 07:05:24;;;;;;;0.20;0.20;;;4.60;1.00;4.70;92625.00;;;;7397725;19;20148;-83
2023/04/01 07:08:06;;;;;;;1.23;0.60;;;4.60;1.00;4.90;92652.00;;;;7397323;19;20144;-81
2023/04/01 07:11:09;;;;;;;0.93;0.40;;;4.60;1.00;4.90;92653.00;;;;7399474;19;20154;-83
2023/04/01 07:14:00;;;;;;;1.07;0.20;;;4.60;1.00;5.00;92663.00;;;;7398873;19;20489;-82
2023/04/01 07:16:53;;;;;;;1.43;0.27;;;4.60;1.00;5.00;92661.00;;;;7399218;19;20149;-84
2023/04/01 07:20:16;;;;;;;1.43;0.40;;;4.70;22.50;5.10;92642.00;;;;7397334;19;20143;-84
2023/04/01 07:22:58;;;;;;;4.17;0.40;;;4.70;10.30;5.00;92644.00;;;;7399542;19;20132;-85
2023/04/01 07:25:47;;;;;;;0.83;0.33;;;4.80;1.00;5.20;92663.00;;;;7400037;19;20151;-83
2023/04/01 07:28:22;;;;;;;0.93;0.40;;;4.80;1.00;5.20;92661.00;;;;7399642;19;20144;-83
2023/04/01 07:31:05;;;;;;;2.43;0.60;;;4.90;1.00;5.30;92625.00;;;;7398306;19;20132;-85
2023/04/01 07:34:06;;;;;;;3.63;1.40;;;4.90;1.00;5.20;92662.00;;;;7401135;19;20480;-84
2023/04/01 07:36:48;;;;;;;3.07;2.50;;;4.90;1.00;5.30;92640.00;;;;7401725;19;20671;-82
2023/04/01 07:40:10;;;;;;;1.10;0.27;;;5.00;1.00;5.30;92661.00;;;;7401033;19;20153;-84
2023/04/01 07:43:22;;;;;;;2.23;0.50;;;5.00;1.00;5.50;92672.00;;;;7398729;19;20151;-86
2023/04/01 07:46:34;;;;;;;0.77;0.77;;;5.10;1.00;5.30;92665.00;;;;7397220;19;20507;-84
2023/04/01 07:49:59;;;;;;;2.37;1.73;;;5.10;1.00;5.30;92630.00;;;;7398511;19;20478;-84
2023/04/01 07:53:03;;;;;;;2.20;0.53;;;5.00;1.00;5.20;92678.00;;;;7398293;19;20147;-84
2023/04/01 07:55:52;;;;;;;2.40;0.40;;;5.00;1.00;5.20;92681.00;;;;7400150;19;20152;-83
2023/04/01 07:58:41;;;;;;;1.57;0.30;;;5.00;1.00;5.20;92669.00;;;;7396525;19;20188;-85
2023/04/01 08:01:32;;;;;;;0.30;0.30;;;5.00;1.00;5.20;92677.00;;;;7397690;19;20137;-86
2023/04/01 08:04:19;;;;;;;0.97;0.40;;;5.00;99.90;5.30;92677.00;;;;7400059;19;20216;-87
2023/04/01 08:07:46;;;;;;;0.33;0.30;;;5.00;1.00;5.30;92683.00;;;;7399420;19;20145;-85
2023/04/01 08:10:53;;;;;;;0.57;0.40;;;5.00;99.90;5.10;92693.00;;;;7400994;19;20624;-87
2023/04/01 08:13:51;;;;;;;2.77;0.20;;;5.00;99.90;5.10;92684.00;;;;7401200;19;20467;-84
2023/04/01 08:17:07;;;;;;;0.00;0.00;;;5.00;1.00;5.00;92692.00;;;;7399409;19;20143;-86
2023/04/01 08:20:07;;;;;;;0.50;0.20;;;4.90;1.00;5.00;92695.00;;;;7401213;19;20132;-87
2023/04/01 08:22:51;;;;;;;0.10;0.10;;;4.90;1.00;5.30;92702.00;;;;7398038;19;20121;-86
2023/04/01 08:25:29;;;;;;;1.27;0.40;;;4.90;1.00;5.20;92689.00;;;;7397994;19;20599;-85
2023/04/01 08:28:22;;;;;;;0.93;0.40;;;4.90;1.00;5.20;92662.00;;;;7398558;19;20216;-87
2023/04/01 08:31:04;;;;;;;1.77;0.23;;;5.00;1.00;5.20;92700.00;;;;7398577;19;20152;-84
2023/04/01 08:33:41;;;;;;;0.57;0.40;;;5.00;1.00;5.60;92706.00;;;;7403604;19;20152;-87
2023/04/01 08:36:22;;;;;;;0.10;0.10;;;5.10;1.00;5.60;92698.00;;;;7400823;19;20200;-86
2023/04/01 08:39:10;;;;;;;0.43;0.20;;;5.20;1.00;5.50;92700.00;;;;7398346;19;20140;-82
2023/04/01 08:42:14;;;;;;;0.90;0.20;;;5.30;99.90;5.50;92696.00;;;;7397522;19;20150;-83
2023/04/01 08:45:26;;;;;;;1.80;0.17;;;5.40;99.90;5.60;92689.00;;;;7392940;19;20642;-80
2023/04/01 08:48:22;;;;;;;0.43;0.20;;;5.40;99.90;5.60;92691.00;;;;7397046;19;20208;-85
2023/04/01 08:51:08;;;;;;;0.10;0.10;;;5.50;99.90;5.80;92689.00;;;;7397366;19;20198;-86
2023/04/01 08:54:16;;;;;;;0.57;0.30;;;5.70;99.90;6.00;92687.00;;;;7399085;19;20184;-81
2023/04/01 08:57:17;;;;;;;0.47;0.30;;;5.80;91.40;6.50;92671.00;;;;7397164;19;20619;-84
2023/04/01 08:59:57;;;;;;;0.53;0.30;;;6.00;99.90;6.70;92640.00;;;;7400876;19;20148;-84
2023/04/01 09:02:56;;;;;;;0.87;0.20;;;6.20;33.60;6.40;92702.00;;;;7404209;19;20633;-84
2023/04/01 09:06:13;;;;;;;0.10;0.10;;;6.00;1.00;6.00;92695.00;;;;7404666;19;20634;-86
2023/04/01 09:09:28;;;;;;;1.00;0.13;;;5.90;1.00;5.80;92702.00;;;;7409154;19;20145;-85
2023/04/01 09:12:25;;;;;;;0.00;0.00;;;5.70;1.00;5.80;92693.00;;;;7406742;19;20125;-87
2023/04/01 09:15:15;;;;;;;1.30;0.20;;;5.60;1.00;5.70;92707.00;;;;7408447;19;21066;-91
2023/04/01 09:18:16;;;;;;;0.37;0.17;;;5.50;9.10;5.60;92712.00;;;;7406475;19;20144;-87
2023/04/01 09:21:10;;;;;;;0.20;0.20;;;5.50;1.00;5.50;92710.00;;;;7408493;19;20137;-86
2023/04/01 09:24:24;;;;;;;0.87;0.20;;;5.50;1.00;5.60;92706.00;;;;7407431;19;20205;-85
2023/04/01 09:27:30;;;;;;;0.10;0.10;;;5.50;36.10;5.50;92711.00;;;;7403683;19;20133;-84
2023/04/01 09:30:19;;;;;;;0.03;0.03;;;5.40;33.30;5.50;92729.00;;;;7408671;19;20151;-84
2023/04/01 09:33:07;;;;;;;0.73;0.30;;;;;5.40;92704.00;;;;7405542;19;20164;-86
2023/04/01 09:35:48;;;;;;;1.13;0.23;;;;;5.60;92701.00;;;;7404858;19;20145;-89
2023/04/01 09:38:28;;;;;;;0.03;0.03;;;;;5.60;92707.00;;;;7404408;19;20156;-86
2023/04/01 09:41:02;;;;;;;0.17;0.17;;;;;5.60;92714.00;;;;7405338;19;20129;-87
2023/04/01 09:44:02;;;;;;;0.87;0.30;;;;;5.60;92727.00;;;;7402061;19;20149;-87
2023/04/01 09:47:05;;;;;;;0.00;0.00;;;;;6.00;92713.00;;;;7405854;19;20136;-87
2023/04/01 09:50:05;;;;;;;0.07;0.07;;;;;6.00;92713.00;;;;7406947;19;20129;-86
2023/04/01 09:53:07;;;;;;;1.17;0.20;;;;;6.20;92698.00;;;;7403534;19;20140;-83
2023/04/01 09:55:52;;;;;;;0.73;0.13;;;;;6.50;92702.00;;;;7401188;19;20137;-83
2023/04/01 09:59:09;;;;;;;0.83;0.00;;;;;6.60;92712.00;;;;7401580;19;20153;-85
2023/04/01 10:01:36;;;;;;;0.10;0.07;;;;;6.50;92704.00;;;;7400980;19;20136;-85
2023/04/01 10:04:30;;;;;;;0.97;0.23;;;;;6.60;92701.00;;;;7401954;19;20177;-84
2023/04/01 10:07:16;;;;;;;0.73;0.20;;;;;7.00;92704.00;;;;7404618;19;20156;-85
2023/04/01 10:10:28;;;;;;;0.10;0.00;;;;;7.10;92703.00;;;;7403454;19;20152;-87
2023/04/01 10:13:22;;;;;;;0.30;0.10;;;;;7.60;92705.00;;;;7403784;19;20660;-90
2023/04/01 10:16:08;;;;;;;0.13;0.00;;;;;7.50;92715.00;;;;7403330;19;20133;-90
2023/04/01 10:19:20;;;;;;;0.27;0.10;;;;;7.40;92707.00;;;;7401780;19;20156;-89
2023/04/01 10:22:21;;;;;;;0.00;0.00;;;;;7.40;92728.00;;;;7403509;19;20161;-85
2023/04/01 10:25:05;;;;;;;0.00;0.00;;;;;6.90;92713.00;;;;7401683;19;20133;-83
2023/04/01 10:28:07;;;;;;;0.07;0.07;;;;;6.90;92723.00;;;;7401971;19;20129;-81
2023/04/01 10:31:11;;;;;;;1.83;0.10;;;;;7.20;92713.00;;;;7403761;19;20155;-85
2023/04/01 10:33:53;;;;;;;1.00;0.20;;;;;7.60;92724.00;;;;7404202;19;20137;-81
2023/04/01 10:37:10;;;;;;;0.13;0.10;;;;;7.20;92722.00;;;;7401231;19;20173;-84
2023/04/01 10:39:57;;;;;;;0.17;0.17;;;;;6.70;92729.00;;;;7401487;19;20149;-84
2023/04/01 10:43:02;;;;;;;0.00;0.00;;;;;6.50;92723.00;;;;7399293;19;20512;-83
2023/04/01 10:45:58;;;;;;;0.10;0.10;;;;;6.90;92731.00;;;;7400002;19;20132;-87
2023/04/01 10:48:54;;;;;;;0.10;0.10;;;;;6.70;92745.00;;;;7403764;19;20172;-87
2023/04/01 10:51:56;;;;;;;0.00;0.00;;;;;6.30;92730.00;;;;7403708;19;20635;-86
2023/04/01 10:54:39;;;;;;;0.53;0.20;;;;;6.50;92738.00;;;;7404565;19;20135;-83
2023/04/01 10:57:46;;;;;;;0.50;0.17;;;;;6.60;92733.00;;;;7402779;19;20196;-84
2023/04/01 11:00:44;;;;;;;0.03;0.03;;;;;6.30;92734.00;;;;7399402;19;20145;-84
2023/04/01 11:04:17;;;;;;;0.00;0.00;;;;;6.30;92734.00;;;;7398992;19;20176;-84
2023/04/01 11:07:06;;;;;;;0.10;0.10;;;;;6.60;92736.00;;;;7403042;19;20452;-83
2023/04/01 11:10:10;;;;;;;0.10;0.10;;;;;6.70;92730.00;;;;7400576;19;20145;-83
2023/04/01 11:12:57;;;;;;;0.10;0.10;;;;;6.60;92729.00;;;;7400972;19;20471;-82
2023/04/01 11:16:06;;;;;;;0.00;0.00;;;;;6.80;92751.00;;;;7401765;19;20598;-85
2023/04/01 11:19:18;;;;;;;0.00;0.00;;;;;7.10;92742.00;;;;7399105;19;20639;-80
2023/04/01 11:21:55;;;;;;;0.00;0.00;;;;;7.20;92744.00;;;;7399859;19;20177;-85
2023/04/01 11:24:50;;;;;;;0.17;0.07;;;;;6.80;92734.00;;;;7398845;19;20136;-82
2023/04/01 11:27:30;;;;;;;1.67;0.10;;;;;7.10;92739.00;;;;7401374;19;20140;-83
2023/04/01 11:30:50;;;;;;;0.00;0.00;;;;;6.80;92730.00;;;;7401433;19;20137;-83
2023/04/01 11:33:43;;;;;;;0.00;0.00;;;;;7.20;92738.00;;;;7398627;19;20159;-85
2023/04/01 11:36:14;;;;;;;0.20;0.20;;;;;7.00;92746.00;;;;7399058;19;20145;-85
2023/04/01 11:39:21;;;;;;;0.23;0.10;;;;;7.20;92744.00;;;;7401043;19;20144;-83
2023/04/01 11:42:25;;;;;;;0.10;0.10;;;;;7.50;92752.00;;;;7398791;19;20145;-85
2023/04/01 11:45:41;;;;;;;0.30;0.20;;;;;7.00;92750.00;;;;7396885;19;20155;-80
2023/04/01 11:48:33;;;;;;;0.87;0.60;;;;;7.00;92761.00;;;;7399191;19;20136;-85
2023/04/01 11:51:33;;;;;;;1.70;0.87;;;;;6.80;92753.00;;;;7400214;19;20144;-81
2023/04/01 11:54:42;;;;;;;1.90;1.20;;;;;7.00;92753.00;;;;7397813;19;20208;-82
2023/04/01 11:57:35;;;;;;;1.10;0.83;;;;;7.30;92768.00;;;;7398911;19;20151;-85
2023/04/01 12:00:34;;;;;;;1.83;0.10;;;;;7.10;92765.00;;;;7398753;19;20144;-87
2023/04/01 12:03:46;;;;;;;2.23;1.30;;;;;7.00;92767.00;;;;7397640;19;20204;-85
2023/04/01 12:06:45;;;;;;;0.30;0.10;;;;;7.00;92774.00;;;;7398740;19;20129;-82
2023/04/01 12:09:30;;;;;;;0.30;0.30;;;;;7.10;92770.00;;;;7397698;19;20133;-86
2023/04/01 12:12:25;;;;;;;0.20;0.20;;;;;7.20;92762.00;;;;7397317;19;20124;-81
2023/04/01 12:15:14;;;;;;;0.20;0.13;;;;;7.40;92777.00;;;;7398649;19;20631;-81
2023/04/01 12:18:05;;;;;;;0.30;0.20;;;;;7.00;92772.00;;;;7398912;19;20196;-83
2023/04/01 12:20:49;;;;;;;0.63;0.13;;;;;7.20;92767.00;;;;7399173;19;20139;-86
2023/04/01 12:23:54;;;;;;;0.20;0.20;;;;;7.30;92767.00;;;;7396733;19;20149;-82
2023/04/01 12:26:40;;;;;;;0.63;0.20;;;;;6.80;92789.00;;;;7398527;19;20156;-82
2023/04/01 12:29:52;;;;;;;0.63;0.13;;;;;6.70;92796.00;;;;7399192;19;20624;-85
2023/04/01 12:32:46;;;;;;;0.03;0.03;;;;;6.70;92800.00;;;;7400829;19;20630;-81
2023/04/01 12:35:43;;;;;;;1.03;0.87;;;;;6.20;92790.00;;;;7400519;19;20129;-81
2023/04/01 12:38:31;;;;;;;3.87;2.70;;;;;6.10;92799.00;;;;7408245;19;20143;-87
2023/04/01 12:41:10;;;;;;;0.50;0.23;;;;;6.00;92811.00;;;;7406870;19;20141;-82
2023/04/01 12:44:02;;;;;;;0.47;0.30;;;;;5.90;92805.00;;;;7403420;19;20495;-84
2023/04/01 12:47:13;;;;;;;0.27;0.27;;;;;5.90;92818.00;;;;7403912;19;20136;-80
2023/04/01 12:50:01;;;;;;;0.40;0.30;;;;;5.90;92801.00;;;;7401977;19;20129;-77
2023/04/01 12:53:11;;;;;;;1.17;0.20;;;;;6.00;92801.00;;;;7406057;19;20133;-79
2023/04/01 12:55:42;;;;;;;0.20;0.13;;;;;6.00;92820.00;;;;7404455;19;20117;-76
2023/04/01 12:58:30;;;;;;;1.07;0.30;;;;;6.10;92813.00;;;;7398260;19;20160;-77
2023/04/01 13:01:07;;;;;;;0.30;0.10;;;;;5.90;92819.00;;;;7400168;19;20153;-77